Time;durP1;ratioP1;P1;durP2;ratioP2;P2;SDS_P1;SDS_P2;PMS_P1;PMS_P2;Temp;Humidity;BMP_temperature;BMP_pressure;BME280_temperature;BME280_humidity;BME280_pressure;Samples;Min_cycle;Max_cycle;Signal;HPM_P1;HPM_P2
2021/12/30 00:00:28;;;;;;;;;;;;;;;14.72;58.96;100668.13;6158583;23;1162;-59
2021/12/30 00:02:56;;;;;;;;;;;;;;;15.00;58.45;100664.34;6158922;23;1550;-60
2021/12/30 00:05:22;;;;;;;;;;;;;;;15.43;57.85;100669.16;6159181;23;1004;-61
2021/12/30 00:07:49;;;;;;;;;;;;;;;15.71;57.41;100675.06;6159083;23;1897;-59
2021/12/30 00:10:15;;;;;;;;;;;;;;;15.62;57.82;100673.97;6159397;23;983;-60
2021/12/30 00:12:42;;;;;;;;;;;;;;;15.70;56.61;100666.22;6159125;23;1022;-59
2021/12/30 00:15:09;;;;;;;;;;;;;;;15.85;57.27;100674.06;6158940;23;1058;-60
2021/12/30 00:17:36;;;;;;;;;;;;;;;15.72;57.12;100674.13;6158577;23;1055;-60
2021/12/30 00:20:05;;;;;;;;;;;;;;;15.92;57.03;100680.63;6159350;23;979;-59
2021/12/30 00:22:32;;;;;;;;;;;;;;;15.97;56.28;100674.94;6159031;23;1062;-61
2021/12/30 00:24:59;;;;;;;;;;;;;;;15.82;56.94;100680.47;6158864;23;995;-60
2021/12/30 00:27:26;;;;;;;;;;;;;;;15.86;55.86;100686.44;6158452;23;1897;-60
2021/12/30 00:29:52;;;;;;;;;;;;;;;15.89;56.66;100678.19;6159043;23;975;-60
2021/12/30 00:32:19;;;;;;;;;;;;;;;15.86;56.25;100678.44;6159007;23;979;-61
2021/12/30 00:34:46;;;;;;;;;;;;;;;15.75;57.01;100679.22;6159172;23;1047;-59
2021/12/30 00:37:14;;;;;;;;;;;;;;;16.08;55.61;100688.31;6158447;23;1024;-60
2021/12/30 00:39:40;;;;;;;;;;;;;;;15.81;57.09;100689.44;6158719;23;995;-61
2021/12/30 00:42:07;;;;;;;;;;;;;;;15.71;57.73;100688.41;6158896;23;1102;-60
2021/12/30 00:44:34;;;;;;;;;;;;;;;16.05;56.30;100677.84;6158385;23;1058;-60
2021/12/30 00:47:00;;;;;;;;;;;;;;;15.76;56.10;100686.28;6158169;23;1893;-59
2021/12/30 00:49:27;;;;;;;;;;;;;;;15.35;56.91;100687.53;6159206;23;986;-59
2021/12/30 00:51:54;;;;;;;;;;;;;;;14.90;58.72;100693.44;6158580;23;971;-60
2021/12/30 00:54:22;;;;;;;;;;;;;;;14.69;59.87;100692.31;6158486;23;1062;-61
2021/12/30 00:56:49;;;;;;;;;;;;;;;14.57;60.42;100687.88;6158497;23;1051;-60
2021/12/30 00:59:15;;;;;;;;;;;;;;;14.55;60.04;100692.41;6159024;23;1034;-60
2021/12/30 01:01:42;;;;;;;;;;;;;;;14.77;58.87;100689.94;6158116;23;1300;-60
2021/12/30 01:04:09;;;;;;;;;;;;;;;14.91;59.94;100683.63;6158070;23;1063;-60
2021/12/30 01:06:35;;;;;;;;;;;;;;;15.35;58.01;100687.53;6159040;23;1938;-59
2021/12/30 01:09:02;;;;;;;;;;;;;;;15.65;56.87;100686.19;6158532;23;972;-59
2021/12/30 01:11:30;;;;;;;;;;;;;;;15.80;56.12;100687.75;6158579;23;938;-59
2021/12/30 01:14:02;;;;;;;;;;;;;;;15.76;56.30;100680.94;6158474;23;1061;-59
2021/12/30 01:16:30;;;;;;;;;;;;;;;16.06;55.42;100690.22;6157983;23;1024;-60
2021/12/30 01:19:03;;;;;;;;;;;;;;;15.97;56.09;100682.94;6158327;23;1018;-59
2021/12/30 01:21:33;;;;;;;;;;;;;;;16.13;56.55;100691.44;6158026;23;1067;-59
2021/12/30 01:24:00;;;;;;;;;;;;;;;16.10;55.65;100689.88;6158322;23;1073;-59
2021/12/30 01:26:27;;;;;;;;;;;;;;;15.98;55.78;100695.31;6157917;23;1897;-61
2021/12/30 01:28:55;;;;;;;;;;;;;;;15.86;55.93;100707.75;6158612;23;1876;-59
2021/12/30 01:31:22;;;;;;;;;;;;;;;16.06;56.15;100699.09;6157882;23;1028;-59
2021/12/30 01:33:48;;;;;;;;;;;;;;;15.98;55.71;100689.97;6157798;23;1090;-60
2021/12/30 01:36:15;;;;;;;;;;;;;;;15.86;56.16;100691.75;6157954;23;1067;-60
2021/12/30 01:38:42;;;;;;;;;;;;;;;16.12;56.00;100702.25;6157874;23;1052;-60
2021/12/30 01:41:09;;;;;;;;;;;;;;;15.86;56.07;100699.75;6158246;23;1023;-59
2021/12/30 01:43:36;;;;;;;;;;;;;;;15.70;57.24;100686.72;6158363;23;951;-61
2021/12/30 01:46:04;;;;;;;;;;;;;;;16.13;55.49;100694.09;6158262;23;998;-60
2021/12/30 01:48:31;;;;;;;;;;;;;;;15.89;57.35;100697.69;6157748;23;1908;-61
2021/12/30 01:50:58;;;;;;;;;;;;;;;15.65;57.15;100686.19;6158075;23;1074;-59
2021/12/30 01:53:25;;;;;;;;;;;;;;;15.50;57.58;100707.72;6158078;23;1011;-61
2021/12/30 01:55:52;;;;;;;;;;;;;;;15.06;58.31;100703.84;6158244;23;974;-58
2021/12/30 01:58:19;;;;;;;;;;;;;;;14.82;58.53;100711.78;6158318;23;1034;-59
2021/12/30 02:00:46;;;;;;;;;;;;;;;14.64;59.39;100721.03;6157925;23;1063;-59
2021/12/30 02:03:14;;;;;;;;;;;;;;;14.52;60.19;100725.38;6157903;23;1375;-60
2021/12/30 02:05:41;;;;;;;;;;;;;;;14.86;58.69;100723.03;6158464;23;1069;-59
2021/12/30 02:08:11;;;;;;;;;;;;;;;15.09;58.20;100724.91;6157932;23;1935;-58
2021/12/30 02:10:39;;;;;;;;;;;;;;;15.39;58.84;100717.47;6158160;23;1037;-61
2021/12/30 02:13:06;;;;;;;;;;;;;;;15.66;56.60;100702.09;6157733;23;1058;-60
2021/12/30 02:15:33;;;;;;;;;;;;;;;15.81;56.55;100726.75;6157701;23;1099;-59
2021/12/30 02:18:01;;;;;;;;;;;;;;;15.98;56.26;100719.31;6157601;23;1032;-59
2021/12/30 02:20:40;;;;;;;;;;;;;;;16.09;55.18;100719.31;6157889;23;1059;-60
2021/12/30 02:23:06;;;;;;;;;;;;;;;16.05;55.99;100724.03;6157920;23;1086;-61
2021/12/30 02:25:33;;;;;;;;;;;;;;;15.89;56.40;100716.34;6157891;23;1065;-59
2021/12/30 02:27:59;;;;;;;;;;;;;;;16.12;55.49;100729.78;6157210;23;1893;-59
2021/12/30 02:30:26;;;;;;;;;;;;;;;16.17;55.89;100732.06;6157862;23;979;-60
2021/12/30 02:32:53;;;;;;;;;;;;;;;15.89;56.05;100719.03;6157660;23;1058;-59
2021/12/30 02:35:19;;;;;;;;;;;;;;;15.90;56.85;100712.72;6158215;23;1041;-58
2021/12/30 02:37:49;;;;;;;;;;;;;;;16.05;55.85;100733.88;6157921;23;987;-59
2021/12/30 02:40:16;;;;;;;;;;;;;;;15.88;57.04;100735.16;6157832;23;1167;-59
2021/12/30 02:42:42;;;;;;;;;;;;;;;16.05;55.79;100739.19;6157619;23;1058;-60
2021/12/30 02:45:09;;;;;;;;;;;;;;;16.09;55.76;100733.53;6157518;23;1073;-59
2021/12/30 02:47:36;;;;;;;;;;;;;;;15.86;56.38;100734.44;6157557;23;1893;-60
2021/12/30 02:50:03;;;;;;;;;;;;;;;16.00;56.21;100752.06;6157922;23;975;-61
2021/12/30 02:52:29;;;;;;;;;;;;;;;16.33;55.10;100742.44;6157331;23;1071;-59
2021/12/30 02:54:57;;;;;;;;;;;;;;;15.97;56.35;100757.59;6157374;23;971;-60
2021/12/30 02:57:25;;;;;;;;;;;;;;;15.99;56.95;100761.84;6157098;23;1059;-60
2021/12/30 02:59:51;;;;;;;;;;;;;;;15.47;58.14;100755.88;6157395;23;983;-60
2021/12/30 03:02:18;;;;;;;;;;;;;;;15.10;59.16;100771.06;6154223;23;1289;-60
2021/12/30 03:04:45;;;;;;;;;;;;;;;14.82;60.01;100774.81;6157486;23;1051;-60
2021/12/30 03:07:11;;;;;;;;;;;;;;;14.69;59.04;100769.50;6157244;23;1932;-60
2021/12/30 03:09:38;;;;;;;;;;;;;;;14.70;60.03;100766.75;6157302;23;1058;-60
2021/12/30 03:12:06;;;;;;;;;;;;;;;14.95;58.31;100770.31;6157565;23;1074;-59
2021/12/30 03:14:33;;;;;;;;;;;;;;;15.19;57.93;100775.69;6157215;23;971;-60
2021/12/30 03:17:00;;;;;;;;;;;;;;;15.57;57.74;100761.41;6157188;23;1090;-59
2021/12/30 03:19:26;;;;;;;;;;;;;;;15.85;56.67;100760.22;6158797;23;975;-61
2021/12/30 03:21:55;;;;;;;;;;;;;;;15.86;57.42;100777.94;6159227;23;1054;-60
2021/12/30 03:24:22;;;;;;;;;;;;;;;15.98;56.44;100772.66;6159477;23;1038;-60
2021/12/30 03:26:48;;;;;;;;;;;;;;;16.13;56.22;100767.97;6159156;23;967;-60
2021/12/30 03:29:16;;;;;;;;;;;;;;;15.80;57.58;100767.72;6159344;23;1932;-61
2021/12/30 03:31:43;;;;;;;;;;;;;;;15.31;57.62;100779.28;6159150;23;1011;-60
2021/12/30 03:34:10;;;;;;;;;;;;;;;14.92;58.66;100775.84;6159711;23;1006;-60
2021/12/30 03:36:37;;;;;;;;;;;;;;;14.73;60.03;100792.28;6159234;23;1023;-60
2021/12/30 03:39:04;;;;;;;;;;;;;;;14.63;60.34;100792.06;6158870;23;1009;-59
2021/12/30 03:41:31;;;;;;;;;;;;;;;14.55;60.10;100798.84;6159143;23;1043;-59
2021/12/30 03:43:59;;;;;;;;;;;;;;;14.45;60.70;100799.47;6159588;23;939;-61
2021/12/30 03:46:27;;;;;;;;;;;;;;;14.42;59.76;100806.81;6159404;23;978;-60
2021/12/30 03:48:54;;;;;;;;;;;;;;;14.35;60.90;100808.19;6159288;23;1897;-59
2021/12/30 03:51:24;;;;;;;;;;;;;;;14.33;60.89;100813.63;6159283;23;1029;-60
2021/12/30 03:53:51;;;;;;;;;;;;;;;14.26;60.49;100813.16;6159210;23;1037;-59
2021/12/30 03:56:19;;;;;;;;;;;;;;;14.24;60.70;100808.91;6158945;23;1043;-59
2021/12/30 03:58:46;;;;;;;;;;;;;;;14.20;60.58;100805.59;6159425;23;975;-60
2021/12/30 04:01:14;;;;;;;;;;;;;;;14.14;59.86;100821.97;6158568;23;1312;-60
2021/12/30 04:03:43;;;;;;;;;;;;;;;14.10;60.68;100825.78;6158435;23;1058;-60
2021/12/30 04:06:09;;;;;;;;;;;;;;;14.04;60.45;100834.16;6158891;23;1057;-59
2021/12/30 04:08:36;;;;;;;;;;;;;;;14.06;60.44;100846.41;6158925;23;1932;-59
2021/12/30 04:11:03;;;;;;;;;;;;;;;14.02;60.59;100849.38;6159361;23;1057;-59
2021/12/30 04:13:30;;;;;;;;;;;;;;;13.98;60.43;100850.53;6159118;23;1061;-60
2021/12/30 04:15:56;;;;;;;;;;;;;;;13.93;60.47;100854.34;6158596;23;1020;-59
2021/12/30 04:18:23;;;;;;;;;;;;;;;13.88;60.53;100861.75;6158973;23;979;-60
2021/12/30 04:20:51;;;;;;;;;;;;;;;13.88;60.80;100853.78;6158741;23;1035;-59
2021/12/30 04:23:17;;;;;;;;;;;;;;;13.78;61.46;100852.69;6158920;23;1074;-58
2021/12/30 04:25:44;;;;;;;;;;;;;;;13.76;61.29;100848.44;6158996;23;1062;-60
2021/12/30 04:28:10;;;;;;;;;;;;;;;13.78;61.82;100867.78;6158835;23;1934;-60
2021/12/30 04:30:37;;;;;;;;;;;;;;;13.75;61.12;100868.84;6158231;23;1087;-60
2021/12/30 04:33:04;;;;;;;;;;;;;;;13.75;61.67;100879.47;6158560;23;1008;-59
2021/12/30 04:35:31;;;;;;;;;;;;;;;13.74;61.58;100883.06;6159327;23;967;-60
2021/12/30 04:37:59;;;;;;;;;;;;;;;13.74;61.08;100875.09;6158877;23;971;-59
2021/12/30 04:40:27;;;;;;;;;;;;;;;13.75;61.18;100876.81;6158312;23;1011;-59
2021/12/30 04:42:54;;;;;;;;;;;;;;;13.68;60.65;100896.75;6158412;23;1020;-59
2021/12/30 04:45:21;;;;;;;;;;;;;;;13.68;61.69;100904.72;6158736;23;1003;-59
2021/12/30 04:47:47;;;;;;;;;;;;;;;13.69;61.26;100912.59;6158613;23;1896;-59
2021/12/30 04:50:14;;;;;;;;;;;;;;;13.65;61.58;100910.25;6159062;23;1045;-59
2021/12/30 04:52:41;;;;;;;;;;;;;;;13.59;61.32;100915.91;6158687;23;999;-59
2021/12/30 04:55:09;;;;;;;;;;;;;;;13.52;61.63;100918.97;6158667;23;1066;-59
2021/12/30 04:57:36;;;;;;;;;;;;;;;13.54;61.82;100924.19;6158206;23;1055;-58
2021/12/30 05:00:04;;;;;;;;;;;;;;;13.64;61.37;100940.41;6158598;23;963;-60
2021/12/30 05:02:43;;;;;;;;;;;;;;;13.57;61.28;100931.09;6157901;23;1395;-59
2021/12/30 05:05:10;;;;;;;;;;;;;;;13.61;61.78;100919.34;6158953;23;975;-60
2021/12/30 05:07:36;;;;;;;;;;;;;;;13.53;61.42;100939.28;6158366;23;1897;-59
2021/12/30 05:10:03;;;;;;;;;;;;;;;13.52;61.83;100945.53;6158468;23;999;-59
2021/12/30 05:12:31;;;;;;;;;;;;;;;13.47;61.69;100939.66;6158526;23;975;-59
2021/12/30 05:14:58;;;;;;;;;;;;;;;13.48;61.13;100952.00;6158485;23;1053;-60
2021/12/30 05:17:28;;;;;;;;;;;;;;;13.46;61.72;100945.91;6158524;23;1153;-60
2021/12/30 05:19:55;;;;;;;;;;;;;;;13.43;61.25;100948.78;6158852;23;1006;-59
2021/12/30 05:22:22;;;;;;;;;;;;;;;13.42;61.91;100952.38;6158091;23;1853;-61
2021/12/30 05:24:48;;;;;;;;;;;;;;;13.39;61.22;100962.31;6158443;23;1058;-58
2021/12/30 05:27:16;;;;;;;;;;;;;;;13.40;61.62;100964.91;6158420;23;1062;-59
2021/12/30 05:29:44;;;;;;;;;;;;;;;13.38;61.99;100966.78;6158008;23;1896;-60
2021/12/30 05:32:10;;;;;;;;;;;;;;;13.37;61.56;100965.09;6158079;23;1230;-59
2021/12/30 05:34:37;;;;;;;;;;;;;;;13.30;60.99;100956.63;6158685;23;982;-59
2021/12/30 05:37:04;;;;;;;;;;;;;;;13.27;61.76;100964.78;6158353;23;1042;-59
2021/12/30 05:39:30;;;;;;;;;;;;;;;13.35;61.84;100964.34;6158142;23;1010;-60
2021/12/30 05:41:57;;;;;;;;;;;;;;;13.40;61.29;100986.16;6157407;23;1149;-59
2021/12/30 05:44:23;;;;;;;;;;;;;;;13.39;61.63;100995.06;6158301;23;1041;-59
2021/12/30 05:46:51;;;;;;;;;;;;;;;13.39;61.39;100979.13;6157843;23;1208;-61
2021/12/30 05:49:18;;;;;;;;;;;;;;;13.33;61.89;101001.59;6158123;23;1946;-60
2021/12/30 05:51:45;;;;;;;;;;;;;;;13.26;61.84;100984.28;6156818;23;1046;-60
2021/12/30 05:54:11;;;;;;;;;;;;;;;13.23;62.22;100983.63;6157898;23;1062;-59
2021/12/30 05:56:38;;;;;;;;;;;;;;;13.23;61.78;101002.22;6158010;23;1057;-60
2021/12/30 05:59:04;;;;;;;;;;;;;;;13.22;61.94;101008.47;6158203;23;1162;-59
2021/12/30 06:01:31;;;;;;;;;;;;;;;13.18;61.99;101012.28;6157717;23;1312;-60
2021/12/30 06:03:58;;;;;;;;;;;;;;;13.27;61.50;101022.31;6158242;23;1066;-59
2021/12/30 06:06:25;;;;;;;;;;;;;;;13.28;61.52;101030.19;6157650;23;1055;-59
2021/12/30 06:08:53;;;;;;;;;;;;;;;13.24;61.96;101035.78;6158065;23;1940;-59
2021/12/30 06:11:19;;;;;;;;;;;;;;;13.26;61.30;101037.41;6158121;23;994;-60
2021/12/30 06:13:46;;;;;;;;;;;;;;;13.24;61.67;101030.50;6158263;23;1070;-59
2021/12/30 06:16:12;;;;;;;;;;;;;;;13.24;61.50;101044.63;6158457;23;1046;-59
2021/12/30 06:18:39;;;;;;;;;;;;;;;13.17;61.87;101050.38;6157782;23;1062;-60
2021/12/30 06:21:07;;;;;;;;;;;;;;;13.15;61.81;101071.72;6157519;23;1012;-59
2021/12/30 06:23:33;;;;;;;;;;;;;;;13.18;61.58;101068.03;6157889;23;1053;-60
2021/12/30 06:26:00;;;;;;;;;;;;;;;13.22;61.46;101080.19;6158188;23;1050;-60
2021/12/30 06:28:27;;;;;;;;;;;;;;;13.20;61.96;101074.94;6157632;23;1889;-59
2021/12/30 06:30:53;;;;;;;;;;;;;;;13.20;62.02;101087.38;6157837;23;1090;-60
2021/12/30 06:33:20;;;;;;;;;;;;;;;13.16;61.59;101075.22;6157733;23;971;-60
2021/12/30 06:35:46;;;;;;;;;;;;;;;13.14;61.58;101088.59;6158006;23;960;-60
2021/12/30 06:38:14;;;;;;;;;;;;;;;13.12;61.63;101104.59;6157558;23;1076;-58
2021/12/30 06:40:41;;;;;;;;;;;;;;;13.10;62.33;101103.00;6157158;23;1063;-61
2021/12/30 06:43:09;;;;;;;;;;;;;;;13.07;62.37;101122.63;6157850;23;978;-59
2021/12/30 06:45:35;;;;;;;;;;;;;;;13.08;61.96;101132.28;6157607;23;1058;-59
2021/12/30 06:48:04;;;;;;;;;;;;;;;13.06;62.03;101133.31;6157310;23;1024;-59
2021/12/30 06:50:32;;;;;;;;;;;;;;;13.03;61.87;101142.31;6157843;23;1237;-59
2021/12/30 06:52:59;;;;;;;;;;;;;;;13.02;62.23;101137.94;6157070;23;1015;-60
2021/12/30 06:55:27;;;;;;;;;;;;;;;13.09;62.39;101165.88;6157174;23;1197;-59
2021/12/30 06:57:54;;;;;;;;;;;;;;;13.11;61.60;101156.00;6157534;23;994;-59
2021/12/30 07:00:21;;;;;;;;;;;;;;;13.07;61.56;101145.63;6157379;23;1092;-60
2021/12/30 07:02:47;;;;;;;;;;;;;;;13.07;61.84;101157.13;6157367;23;1394;-60
2021/12/30 07:05:14;;;;;;;;;;;;;;;13.10;61.68;101158.75;6157918;23;986;-60
2021/12/30 07:07:41;;;;;;;;;;;;;;;13.06;62.19;101158.06;6157120;23;1051;-59
2021/12/30 07:10:08;;;;;;;;;;;;;;;13.06;61.67;101178.47;6157477;23;1940;-60
2021/12/30 07:12:37;;;;;;;;;;;;;;;13.06;61.77;101181.09;6157588;23;1074;-59
2021/12/30 07:15:03;;;;;;;;;;;;;;;13.03;61.98;101179.50;6157590;23;974;-59
2021/12/30 07:17:31;;;;;;;;;;;;;;;13.00;61.67;101174.34;6157510;23;994;-60
2021/12/30 07:19:58;;;;;;;;;;;;;;;12.98;61.97;101192.16;6158102;23;1057;-59
2021/12/30 07:22:24;;;;;;;;;;;;;;;13.07;61.94;101191.66;6157262;23;1090;-60
2021/12/30 07:24:51;;;;;;;;;;;;;;;13.08;61.50;101188.03;6156983;23;1087;-60
2021/12/30 07:27:17;;;;;;;;;;;;;;;13.04;61.73;101197.13;6157506;23;1014;-59
2021/12/30 07:29:45;;;;;;;;;;;;;;;13.00;61.93;101190.28;6157010;23;1934;-61
2021/12/30 07:32:12;;;;;;;;;;;;;;;13.01;61.71;101197.31;6157100;23;1266;-58
2021/12/30 07:34:39;;;;;;;;;;;;;;;13.02;61.72;101199.00;6157788;23;1054;-59
2021/12/30 07:37:05;;;;;;;;;;;;;;;13.08;61.54;101206.63;6157351;23;1062;-60
2021/12/30 07:39:32;;;;;;;;;;;;;;;13.03;62.06;101199.84;6156903;23;1028;-60
2021/12/30 07:41:58;;;;;;;;;;;;;;;13.00;62.08;101208.84;6157077;23;1086;-59
2021/12/30 07:44:25;;;;;;;;;;;;;;;12.99;61.83;101196.53;6157101;23;1959;-61
2021/12/30 07:46:53;;;;;;;;;;;;;;;13.01;62.10;101218.53;6157517;23;1038;-60
2021/12/30 07:49:19;;;;;;;;;;;;;;;13.06;61.96;101208.50;6157170;23;1948;-59
2021/12/30 07:51:46;;;;;;;;;;;;;;;13.04;61.67;101209.53;6157361;23;1042;-58
2021/12/30 07:54:12;;;;;;;;;;;;;;;13.01;61.89;101215.91;6157222;23;1051;-61
2021/12/30 07:56:39;;;;;;;;;;;;;;;13.02;61.82;101219.41;6157527;23;979;-58
2021/12/30 07:59:05;;;;;;;;;;;;;;;13.00;62.40;101230.09;6157402;23;1062;-59
2021/12/30 08:01:32;;;;;;;;;;;;;;;12.98;61.80;101236.44;6156928;23;1280;-59
2021/12/30 08:04:00;;;;;;;;;;;;;;;12.98;62.00;101231.97;6157674;23;1122;-60
2021/12/30 08:06:28;;;;;;;;;;;;;;;12.94;62.06;101233.94;6158729;23;1027;-58
2021/12/30 08:08:54;;;;;;;;;;;;;;;12.92;62.14;101234.97;6159042;23;1897;-59
2021/12/30 09:00:38;;;;;;;;;;;;;;;12.91;62.11;101283.69;4716781;27;10002301;-39
2021/12/30 09:03:05;;;;;;;;;;;;;;;12.90;62.34;101295.25;5057455;28;1799;-39
2021/12/30 09:05:32;;;;;;;;;;;;;;;12.90;62.17;101301.41;5058763;28;1843;-38
2021/12/30 09:07:58;;;;;;;;;;;;;;;12.84;62.27;101291.13;5060795;28;1910;-38
2021/12/30 09:10:25;;;;;;;;;;;;;;;12.82;62.35;101298.31;5055791;28;1932;-39
2021/12/30 09:12:53;;;;;;;;;;;;;;;12.80;62.30;101305.50;5061438;28;1810;-39
2021/12/30 09:15:20;;;;;;;;;;;;;;;12.89;62.05;101317.41;5057505;28;1560;-39
2021/12/30 09:17:50;;;;;;;;;;;;;;;12.88;62.05;101318.38;5062212;28;1334;-38
2021/12/30 09:20:18;;;;;;;;;;;;;;;12.82;62.21;101311.59;5061239;28;1810;-39
2021/12/30 09:22:44;;;;;;;;;;;;;;;12.83;62.16;101318.63;5057323;28;1535;-39
2021/12/30 09:25:11;;;;;;;;;;;;;;;12.84;62.54;101336.25;5054926;28;1582;-39
2021/12/30 09:27:39;;;;;;;;;;;;;;;12.79;62.39;101329.47;5055890;28;1602;-39
2021/12/30 09:30:08;;;;;;;;;;;;;;;12.82;62.36;101335.47;5059098;28;1902;-39
2021/12/30 09:32:35;;;;;;;;;;;;;;;12.89;62.41;101341.31;5060174;28;1234;-39
2021/12/30 09:35:04;;;;;;;;;;;;;;;12.86;62.05;101349.44;5061201;28;1883;-39
2021/12/30 09:37:30;;;;;;;;;;;;;;;12.83;62.22;101342.50;5057605;28;1562;-39
2021/12/30 09:39:59;;;;;;;;;;;;;;;12.87;62.08;101343.19;5058017;28;1654;-39
2021/12/30 09:42:25;;;;;;;;;;;;;;;12.87;62.27;101348.50;5047222;28;1538;-39
2021/12/30 09:44:53;;;;;;;;;;;;;;;12.81;62.05;101341.75;5057917;28;1530;-40
2021/12/30 09:47:19;;;;;;;;;;;;;;;12.79;62.44;101345.38;5061985;28;1250;-39
2021/12/30 09:49:47;;;;;;;;;;;;;;;12.81;62.27;101348.81;5060206;28;2275;-38
2021/12/30 09:52:15;;;;;;;;;;;;;;;12.81;61.72;101338.19;5055900;28;1530;-38
2021/12/30 09:54:42;;;;;;;;;;;;;;;12.78;62.37;101338.38;5043863;28;1486;-39
2021/12/30 09:57:08;;;;;;;;;;;;;;;12.79;62.54;101356.84;5054582;28;1743;-38
2021/12/30 09:59:35;;;;;;;;;;;;;;;12.77;62.77;101341.97;5053545;28;1695;-40
2021/12/30 10:02:01;;;;;;;;;;;;;;;12.75;62.32;101363.25;5043665;28;1216;-39
2021/12/30 10:04:30;;;;;;;;;;;;;;;12.78;62.58;101365.78;5047757;28;1882;-39
2021/12/30 10:06:58;;;;;;;;;;;;;;;12.73;62.43;101355.41;5042783;28;1598;-39
2021/12/30 10:09:39;;;;;;;;;;;;;;;12.73;62.54;101357.19;5039814;28;1914;-39
2021/12/30 10:12:05;;;;;;;;;;;;;;;12.84;62.23;101360.13;5039093;28;1618;-39
2021/12/30 10:14:33;;;;;;;;;;;;;;;12.82;62.29;101369.97;5035554;28;1954;-39
2021/12/30 10:17:19;;;;;;;;;;;;;;;12.77;62.46;101365.84;5041490;28;1595;-39
2021/12/30 10:19:45;;;;;;;;;;;;;;;12.85;62.10;101366.28;5028502;28;1815;-39
2021/12/30 10:22:13;;;;;;;;;;;;;;;12.83;62.26;101373.47;5041989;28;1511;-39
2021/12/30 10:24:41;;;;;;;;;;;;;;;12.80;62.37;101355.09;5042028;28;1492;-39
2021/12/30 10:27:08;;;;;;;;;;;;;;;12.77;62.50;101371.16;5041004;28;1515;-39
2021/12/30 10:29:44;;;;;;;;;;;;;;;12.78;62.56;101364.91;5042032;28;1981;-39
2021/12/30 10:32:15;;;;;;;;;;;;;;;12.73;61.95;101362.47;5038361;28;1178;-39
2021/12/30 10:34:56;;;;;;;;;;;;;;;12.74;62.44;101370.38;5046396;28;2107;-39
2021/12/30 10:37:23;;;;;;;;;;;;;;;12.70;62.33;101366.16;5040301;28;1684;-39
2021/12/30 10:39:51;;;;;;;;;;;;;;;12.70;62.38;101365.31;5042171;28;1566;-39
2021/12/30 10:42:21;;;;;;;;;;;;;;;12.78;62.31;101380.84;5040714;28;1586;-39
2021/12/30 10:44:48;;;;;;;;;;;;;;;12.81;62.42;101376.25;5041699;28;1558;-39
2021/12/30 10:47:15;;;;;;;;;;;;;;;12.80;62.17;101369.19;5045322;28;1257;-39
2021/12/30 10:49:42;;;;;;;;;;;;;;;12.77;62.08;101379.97;5045616;28;2279;-39
2021/12/30 10:52:10;;;;;;;;;;;;;;;12.81;62.20;101381.53;5041460;28;1562;-39
2021/12/30 10:54:39;;;;;;;;;;;;;;;12.74;62.44;101364.22;5041277;28;1524;-39
2021/12/30 10:57:08;;;;;;;;;;;;;;;12.79;62.19;101383.38;5038913;28;1672;-39
2021/12/30 10:59:35;;;;;;;;;;;;;;;12.77;62.32;101368.50;5038719;28;1562;-39
2021/12/30 11:02:03;;;;;;;;;;;;;;;12.81;61.95;101376.25;5040953;28;1576;-39
2021/12/30 11:04:34;;;;;;;;;;;;;;;12.79;62.26;101367.47;5041278;28;1654;-38
2021/12/30 11:07:00;;;;;;;;;;;;;;;12.77;62.33;101387.91;5041885;28;1506;-39
2021/12/30 11:09:27;;;;;;;;;;;;;;;12.76;62.37;101383.56;5037719;28;1968;-39
2021/12/30 11:11:54;;;;;;;;;;;;;;;12.74;62.47;101373.03;5037681;28;1854;-39
2021/12/30 11:14:23;;;;;;;;;;;;;;;12.75;62.40;101381.84;5038360;28;1504;-39
2021/12/30 11:17:05;;;;;;;;;;;;;;;12.72;62.10;101382.00;5040252;28;1769;-38
2021/12/30 11:19:33;;;;;;;;;;;;;;;12.76;62.32;101385.38;5045701;28;1719;-39
2021/12/30 11:22:01;;;;;;;;;;;;;;;12.70;62.64;101382.09;5040528;28;1985;-38
2021/12/30 11:24:28;;;;;;;;;;;;;;;12.69;62.58;101382.16;5041084;28;1597;-39
2021/12/30 11:26:55;;;;;;;;;;;;;;;12.69;62.62;101398.06;5040370;28;1567;-39
2021/12/30 11:29:23;;;;;;;;;;;;;;;12.70;62.88;101400.66;5041104;28;1934;-39
2021/12/30 11:31:50;;;;;;;;;;;;;;;12.68;62.38;101394.56;5042357;28;1416;-38
2021/12/30 11:34:17;;;;;;;;;;;;;;;12.70;62.58;101403.31;5046532;28;2020;-41
2021/12/30 11:36:43;;;;;;;;;;;;;;;12.70;62.07;101400.66;5041089;28;1881;-39
2021/12/30 11:39:14;;;;;;;;;;;;;;;12.70;62.43;101400.66;5040925;28;1546;-40
2021/12/30 11:41:41;;;;;;;;;;;;;;;12.78;62.25;101407.38;5040360;28;1609;-39
2021/12/30 11:44:08;;;;;;;;;;;;;;;12.76;62.32;101418.06;5043029;28;1499;-41
2021/12/30 11:46:43;;;;;;;;;;;;;;;12.70;62.54;101410.44;5040811;28;1672;-39
2021/12/30 11:49:10;;;;;;;;;;;;;;;12.71;62.50;101417.44;5044945;28;2259;-39
2021/12/30 11:51:47;;;;;;;;;;;;;;;12.70;62.56;101411.28;5040770;28;2877;-40
2021/12/30 11:54:32;;;;;;;;;;;;;;;12.69;62.59;101409.56;5040708;28;1674;-39
2021/12/30 11:57:17;;;;;;;;;;;;;;;12.67;62.57;101406.16;5041329;28;1680;-39
2021/12/30 11:59:44;;;;;;;;;;;;;;;12.69;62.72;101425.50;5038017;28;1658;-39
2021/12/30 12:02:27;;;;;;;;;;;;;;;12.65;62.67;101418.63;5040774;28;1493;-39
2021/12/30 12:04:54;;;;;;;;;;;;;;;12.64;62.62;101431.97;5039706;28;1591;-39
2021/12/30 12:07:22;;;;;;;;;;;;;;;12.66;62.73;101430.94;5039988;28;1685;-39
2021/12/30 12:09:49;;;;;;;;;;;;;;;12.65;62.58;101434.56;5037401;28;1899;-39
2021/12/30 12:12:28;;;;;;;;;;;;;;;12.64;62.70;101442.59;5037810;28;1567;-39
2021/12/30 12:14:56;;;;;;;;;;;;;;;12.60;62.66;101433.06;5037932;28;1471;-39
2021/12/30 12:17:31;;;;;;;;;;;;;;;12.63;62.82;101452.31;5039634;28;1819;-39
2021/12/30 12:19:57;;;;;;;;;;;;;;;12.65;62.59;101452.25;5043540;28;1819;-39
2021/12/30 12:22:28;;;;;;;;;;;;;;;12.67;62.86;101445.94;5037578;28;1562;-40
2021/12/30 12:25:06;;;;;;;;;;;;;;;12.69;62.22;101461.78;5038861;28;1563;-39
2021/12/30 12:27:33;;;;;;;;;;;;;;;12.74;62.36;101465.91;5038854;28;2031;-39
2021/12/30 12:30:00;;;;;;;;;;;;;;;12.71;62.40;101454.59;5036878;28;1906;-39
2021/12/30 12:32:39;;;;;;;;;;;;;;;12.67;62.32;101456.56;5039749;28;2009;-40
2021/12/30 12:35:22;;;;;;;;;;;;;;;12.64;62.57;101458.50;5044185;28;1750;-39
2021/12/30 12:37:51;;;;;;;;;;;;;;;12.65;62.50;101455.78;5041573;28;1495;-39
2021/12/30 12:40:26;;;;;;;;;;;;;;;12.66;62.68;101468.09;5038787;28;1717;-41
2021/12/30 12:42:57;;;;;;;;;;;;;;;12.63;62.45;101470.88;5039192;28;1518;-39
2021/12/30 12:45:24;;;;;;;;;;;;;;;12.64;62.67;101450.53;5039413;28;1972;-39
2021/12/30 12:48:06;;;;;;;;;;;;;;;12.64;62.75;101454.03;5043371;28;1295;-39
2021/12/30 12:50:38;;;;;;;;;;;;;;;12.65;62.76;101463.75;5046193;28;2415;-39
2021/12/30 12:53:19;;;;;;;;;;;;;;;12.64;62.59;101480.59;5034678;28;1851;-39
2021/12/30 12:55:45;;;;;;;;;;;;;;;12.62;62.55;101466.53;5017648;28;1627;-39
2021/12/30 12:58:12;;;;;;;;;;;;;;;12.63;62.79;101468.22;5038637;28;1577;-39
2021/12/30 13:00:39;;;;;;;;;;;;;;;12.64;62.65;101467.31;5041940;28;1483;-39
2021/12/30 13:03:06;;;;;;;;;;;;;;;12.65;62.56;101471.69;5041613;28;1139;-39
2021/12/30 13:05:32;;;;;;;;;;;;;;;12.64;62.56;101483.22;5041274;28;1692;-38
2021/12/30 13:08:00;;;;;;;;;;;;;;;12.67;62.65;101482.22;5049165;28;1551;-38
2021/12/30 13:10:27;;;;;;;;;;;;;;;12.67;62.19;101483.09;5040924;28;2068;-39
2021/12/30 13:12:59;;;;;;;;;;;;;;;12.64;62.33;101490.34;5041172;28;1654;-38
2021/12/30 13:15:25;;;;;;;;;;;;;;;12.61;62.29;101482.53;5039012;28;1601;-39
2021/12/30 13:17:52;;;;;;;;;;;;;;;12.58;62.50;101488.84;5043147;28;1010;-39
2021/12/30 13:20:18;;;;;;;;;;;;;;;12.56;62.71;101498.69;5043380;28;1766;-38
2021/12/30 13:22:45;;;;;;;;;;;;;;;12.56;62.98;101493.38;5042802;28;1812;-38
2021/12/30 13:25:12;;;;;;;;;;;;;;;12.57;62.71;101495.06;5042633;28;1615;-39
2021/12/30 13:27:40;;;;;;;;;;;;;;;12.59;62.62;101498.50;5042562;28;1632;-39
2021/12/30 13:30:08;;;;;;;;;;;;;;;12.59;62.79;101495.84;5042167;28;1979;-39
2021/12/30 13:32:36;;;;;;;;;;;;;;;12.56;62.84;101493.38;5044035;28;1064;-38
2021/12/30 13:35:04;;;;;;;;;;;;;;;12.59;62.64;101493.22;5045755;28;1642;-38
2021/12/30 13:37:32;;;;;;;;;;;;;;;12.54;62.76;101492.59;5046592;28;1793;-38
2021/12/30 13:39:59;;;;;;;;;;;;;;;12.50;62.81;101497.19;5046425;28;1492;-38